Time,TemperatureF,DewpointF,PressureIn,WindDirection,WindDirectionDegrees,WindSpeedMPH,WindSpeedGustMPH,Humidity,HourlyPrecipIn,Conditions,Clouds,dailyrainin,SoftwareType,DateUTC
2013-04-25 00:00:00,34.0,24.0,-100.00,WNW,292,2.0,7.0,67,0.00,,,-99.99,,2013-04-25 07:00:00,
2013-04-25 01:00:00,35.0,21.0,-100.00,West,279,2.0,9.0,56,0.00,,,-99.99,,2013-04-25 08:00:00,
2013-04-25 02:00:00,33.0,23.0,-100.00,West,274,2.0,8.0,65,0.00,,,-99.99,,2013-04-25 09:00:00,
2013-04-25 03:00:00,35.0,24.0,-100.00,West,276,2.0,3.0,65,0.00,,,-99.99,,2013-04-25 10:00:00,
2013-04-25 04:00:00,35.0,27.0,-100.00,WNW,282,2.0,5.0,72,0.00,,,-99.99,,2013-04-25 11:00:00,
2013-04-25 05:00:00,37.0,27.0,-100.00,WNW,297,2.0,5.0,67,0.00,,,-99.99,,2013-04-25 12:00:00,
2013-04-25 06:00:00,36.0,27.0,-100.00,NW,308,2.0,6.0,69,0.00,,,-99.99,,2013-04-25 13:00:00,
2013-04-25 08:00:00,41.0,29.0,-100.00,WNW,301,3.0,16.0,63,0.00,,,-99.99,,2013-04-25 15:00:00,
2013-04-25 09:00:00,46.0,28.0,-100.00,WNW,301,3.0,12.0,50,0.00,,,-99.99,,2013-04-25 16:00:00,
2013-04-25 10:00:00,45.0,29.0,-100.00,North,0,0.0,3.0,53,0.00,,,-99.99,,2013-04-25 17:00:00,
2013-04-25 11:00:00,48.0,30.0,-100.00,North,0,0.0,1.0,50,0.00,,,-99.99,,2013-04-25 18:00:00,
2013-04-25 12:00:00,51.0,32.0,-100.00,North,0,0.0,2.0,48,0.00,,,-99.99,,2013-04-25 19:00:00,
2013-04-25 13:00:00,51.0,33.0,-100.00,North,0,0.0,3.0,49,0.00,,,-99.99,,2013-04-25 20:00:00,
2013-04-25 14:00:00,53.0,33.0,-100.00,North,0,0.0,3.0,46,0.00,,,-99.99,,2013-04-25 21:00:00,
2013-04-25 15:00:00,53.0,34.0,-100.00,North,0,0.0,2.0,48,0.00,,,-99.99,,2013-04-25 22:00:00,
2013-04-25 16:00:00,53.0,34.0,-100.00,North,0,0.0,7.0,48,0.00,,,-99.99,,2013-04-25 23:00:00,
2013-04-25 17:00:00,51.0,34.0,-100.00,WNW,290,1.0,7.0,51,0.00,,,-99.99,,2013-04-26 00:00:00,
2013-04-25 18:00:00,49.0,34.0,-100.00,WNW,290,2.0,12.0,55,0.00,,,-99.99,,2013-04-26 01:00:00,
2013-04-25 19:00:00,45.0,33.0,-100.00,WNW,289,1.0,9.0,63,0.00,,,-99.99,,2013-04-26 02:00:00,
2013-04-25 20:00:00,42.0,33.0,-100.00,North,0,0.0,3.0,69,0.00,,,-99.99,,2013-04-26 03:00:00,
2013-04-25 21:00:00,40.0,33.0,-100.00,WNW,284,1.0,3.0,75,0.00,,,-99.99,,2013-04-26 04:00:00,
2013-04-25 22:00:00,40.0,33.0,-100.00,WNW,288,1.0,6.0,77,0.00,,,-99.99,,2013-04-26 05:00:00,
2013-04-25 23:00:00,40.0,34.0,-100.00,WNW,287,1.0,3.0,79,0.00,,,-99.99,,2013-04-26 06:00:00,